Main page
METAR-TAF:

METAR-TAF

Airports :

Mankato Regional Airport

Mankato, Minnesota, United States

latitude: 44-13N, longitude: 093-55W, elevation: 1020 ft

Current weather observation

The report was made 21 minutes ago, at 20:56 UTC
Wind 8 mph from the South
Temperature 12°F
Humidity 61%
Pressure 30.68 in. Hg
Visibility: 10 miles
Clear sky

METAR: KMKT 202056Z AUTO 17007KT 10SM CLR M11/M17 A3068 RMK AO2 SLP420 T11111167 56027 FZRANO

Time: 15:17 (21:17 UTC)

Forecast

The report was made 3 hours and 44 minutes ago, at 17:33 UTC
Forecast valid from 20 at 18 UTC to 21 at 18 UTC
Wind 8 mph from the South
Visibility: 6 miles
Clear sky
From 21 at 1000 UTC
Wind 12 mph from the South/Southwest
Visibility: 6 miles
Clear sky
From 21 at 1500 UTC
Wind 16 mph from the Southwest with gusts up to 25 mph
Visibility: 6 miles
Clear sky

TAF: KMKT 201733Z 2018/2118 19007KT P6SM SKC FM211000 20010KT P6SM SKC FM211500 22014G22KT P6SM SKC

Weather observations and forecasts of more than 4000 airports (METAR and TAF reports).

The available stations are represented by yellow and red dots on the map.

Hover mouse over dot to see the name of the station.

Then click to see weather observations and forecasts.

To change the map : click on the green buttons with a black cross to zoom in, on the green button with a dash to zoom out, or on the green arrows for adjacent maps.


METAR-TAF: